Time;durP1;ratioP1;P1;durP2;ratioP2;P2;SDS_P1;SDS_P2;PMS_P1;PMS_P2;Temp;Humidity;BMP_temperature;BMP_pressure;BME280_temperature;BME280_humidity;BME280_pressure;Samples;Min_cycle;Max_cycle;Signal;HPM_P1;HPM_P2
2023/07/24 00:00:14;;;;;;;10.88;7.85;;;18.50;99.90;;;;;;5056096;28;20608;-82
2023/07/24 00:02:40;;;;;;;10.38;8.15;;;18.60;99.90;;;;;;5054646;28;20184;-82
2023/07/24 00:05:06;;;;;;;9.57;7.28;;;18.60;99.90;;;;;;5056252;28;20284;-81
2023/07/24 00:07:32;;;;;;;10.13;7.35;;;18.70;99.90;;;;;;5055863;28;20227;-81
2023/07/24 00:09:57;;;;;;;11.07;8.20;;;18.70;99.90;;;;;;5056013;28;20211;-82
2023/07/24 00:12:23;;;;;;;10.85;8.05;;;18.80;99.90;;;;;;5056093;28;20235;-82
2023/07/24 00:14:49;;;;;;;11.30;7.90;;;18.90;99.90;;;;;;5055890;28;20199;-83
2023/07/24 00:17:14;;;;;;;10.45;8.05;;;19.00;99.90;;;;;;5055525;28;20220;-83
2023/07/24 00:19:40;;;;;;;9.25;7.80;;;18.90;99.90;;;;;;5055950;28;20173;-83
2023/07/24 00:22:05;;;;;;;11.38;8.48;;;18.90;99.90;;;;;;5055727;28;20624;-83
2023/07/24 00:24:31;;;;;;;10.57;7.70;;;19.00;99.90;;;;;;5055718;28;20184;-83
2023/07/24 00:26:57;;;;;;;13.60;8.30;;;18.80;99.90;;;;;;5055444;28;20205;-82
2023/07/24 00:29:23;;;;;;;14.02;8.38;;;18.70;99.90;;;;;;5055182;28;20223;-83
2023/07/24 00:31:49;;;;;;;12.93;7.97;;;18.70;99.90;;;;;;5055156;28;20272;-81
2023/07/24 00:34:14;;;;;;;9.48;7.30;;;18.70;99.90;;;;;;5055491;28;20165;-83
2023/07/24 00:36:40;;;;;;;10.93;7.45;;;18.70;99.90;;;;;;5055061;28;20208;-83
2023/07/24 00:39:06;;;;;;;11.73;7.38;;;18.70;99.90;;;;;;5055131;28;20189;-83
2023/07/24 00:41:32;;;;;;;10.48;7.63;;;18.70;99.90;;;;;;5054523;28;20232;-83
2023/07/24 00:43:57;;;;;;;10.98;7.68;;;18.70;99.90;;;;;;5054593;28;20169;-83
2023/07/24 00:46:24;;;;;;;11.48;7.88;;;18.80;99.90;;;;;;5054968;28;20165;-83
2023/07/24 00:48:50;;;;;;;13.65;7.35;;;18.80;99.90;;;;;;5055115;28;20173;-82
2023/07/24 00:51:16;;;;;;;10.18;7.95;;;19.00;99.90;;;;;;5054492;28;20701;-83
2023/07/24 00:53:42;;;;;;;10.52;7.47;;;18.90;99.90;;;;;;5054511;28;20181;-81
2023/07/24 00:56:08;;;;;;;9.93;7.18;;;19.00;99.90;;;;;;5054365;28;20255;-82
2023/07/24 00:58:37;;;;;;;14.52;8.15;;;19.00;99.90;;;;;;5054705;28;20214;-84
2023/07/24 01:01:03;;;;;;;10.52;7.45;;;19.00;99.90;;;;;;5054372;28;20180;-82
2023/07/24 01:03:34;;;;;;;12.30;7.65;;;19.00;99.90;;;;;;5054271;28;20727;-83
2023/07/24 01:06:03;;;;;;;11.00;6.95;;;19.00;99.90;;;;;;5054769;28;20169;-84
2023/07/24 01:08:29;;;;;;;8.18;6.82;;;19.00;99.90;;;;;;5054751;28;20202;-83
2023/07/24 01:10:59;;;;;;;9.30;7.05;;;19.00;99.90;;;;;;5055366;28;20177;-84
2023/07/24 01:13:29;;;;;;;10.80;7.18;;;18.90;99.90;;;;;;5055321;28;20276;-85
2023/07/24 01:16:09;;;;;;;12.18;7.43;;;18.80;99.90;;;;;;5055208;28;20193;-83
2023/07/24 01:18:36;;;;;;;9.32;7.32;;;18.80;99.90;;;;;;5055402;28;20180;-83
2023/07/24 01:21:05;;;;;;;17.35;7.85;;;18.80;99.90;;;;;;5055395;28;20173;-83
2023/07/24 01:24:03;;;;;;;11.70;7.13;;;18.80;99.90;;;;;;5055467;28;20184;-84
2023/07/24 01:26:29;;;;;;;11.98;7.10;;;18.80;99.90;;;;;;5055118;28;20173;-85
2023/07/24 01:28:54;;;;;;;13.10;7.55;;;18.70;99.90;;;;;;5053086;28;20188;-83
2023/07/24 01:31:20;;;;;;;8.52;7.03;;;18.80;99.90;;;;;;5054803;28;20166;-84
2023/07/24 01:33:45;;;;;;;9.52;7.90;;;18.80;99.90;;;;;;5054555;28;20184;-84
2023/07/24 01:36:14;;;;;;;16.52;8.02;;;18.80;99.90;;;;;;5054496;28;20668;-84
2023/07/24 01:38:41;;;;;;;15.98;8.48;;;18.70;99.90;;;;;;5053110;28;20177;-83
2023/07/24 01:41:07;;;;;;;9.90;7.60;;;18.70;99.90;;;;;;5053844;28;20225;-84
2023/07/24 01:43:33;;;;;;;12.73;8.40;;;18.70;99.90;;;;;;5054648;28;20219;-84
2023/07/24 01:45:58;;;;;;;13.20;8.60;;;18.80;99.90;;;;;;5056438;28;20172;-83
2023/07/24 01:48:24;;;;;;;17.00;7.43;;;18.70;99.90;;;;;;5053613;28;20169;-82
2023/07/24 01:50:50;;;;;;;8.95;6.30;;;18.60;99.90;;;;;;5053758;28;20177;-81
2023/07/24 01:53:17;;;;;;;5.20;4.70;;;18.60;99.90;;;;;;5052815;28;20220;-80
2023/07/24 01:55:42;;;;;;;7.75;5.30;;;18.60;99.90;;;;;;5053556;28;20671;-82
2023/07/24 01:58:08;;;;;;;6.90;4.57;;;18.60;99.90;;;;;;5054760;28;20165;-82
2023/07/24 02:00:34;;;;;;;4.80;4.28;;;18.50;99.90;;;;;;5054492;28;20169;-82
2023/07/24 02:02:59;;;;;;;3.60;3.30;;;18.50;99.90;;;;;;5053136;28;20223;-82
2023/07/24 02:05:25;;;;;;;7.45;3.75;;;18.50;99.90;;;;;;5054593;28;20223;-83
2023/07/24 02:07:51;;;;;;;4.97;3.42;;;18.40;99.90;;;;;;5054110;28;20165;-82
2023/07/24 02:10:17;;;;;;;3.05;2.78;;;18.40;99.90;;;;;;5054311;28;20579;-82
2023/07/24 02:12:42;;;;;;;3.75;2.78;;;18.40;99.90;;;;;;5055335;28;20173;-83
2023/07/24 02:15:08;;;;;;;2.88;2.60;;;18.30;99.90;;;;;;5056373;28;20184;-83
2023/07/24 02:17:34;;;;;;;2.83;2.63;;;18.30;99.90;;;;;;5055380;28;20741;-82
2023/07/24 02:20:00;;;;;;;2.22;2.03;;;18.30;99.90;;;;;;5055526;28;20247;-82
2023/07/24 02:22:25;;;;;;;2.60;2.40;;;18.30;99.90;;;;;;5056515;28;20648;-84
2023/07/24 02:24:51;;;;;;;2.40;2.20;;;18.30;99.90;;;;;;5056656;28;20528;-83
2023/07/24 02:27:27;;;;;;;3.83;2.67;;;18.20;99.90;;;;;;5055347;28;20169;-82
2023/07/24 02:29:54;;;;;;;2.50;2.30;;;18.30;99.90;;;;;;5055538;28;20199;-82
2023/07/24 02:32:22;;;;;;;2.40;2.30;;;18.30;99.90;;;;;;5054253;28;20158;-83
2023/07/24 02:34:51;;;;;;;2.45;2.25;;;18.20;99.90;;;;;;5054176;28;20223;-83
2023/07/24 02:37:16;;;;;;;3.08;2.65;;;18.20;99.90;;;;;;5055122;28;20262;-83
2023/07/24 02:39:42;;;;;;;2.75;2.55;;;18.20;99.90;;;;;;5056394;28;20165;-83
2023/07/24 02:42:08;;;;;;;2.97;2.67;;;18.20;99.90;;;;;;5056809;28;20711;-83
2023/07/24 02:44:34;;;;;;;2.67;2.47;;;18.20;99.90;;;;;;5055302;28;20185;-85
2023/07/24 02:47:00;;;;;;;4.30;2.90;;;18.30;99.90;;;;;;5054597;28;20272;-83
2023/07/24 02:49:25;;;;;;;3.50;2.60;;;18.30;99.90;;;;;;5056769;28;20197;-83
2023/07/24 02:51:51;;;;;;;5.78;2.97;;;18.30;99.90;;;;;;5056299;28;20203;-82
2023/07/24 02:54:17;;;;;;;3.25;2.95;;;18.20;99.90;;;;;;5055349;28;20201;-83
2023/07/24 02:56:42;;;;;;;2.80;2.60;;;18.20;99.90;;;;;;5054446;28;20719;-84
2023/07/24 02:59:08;;;;;;;4.32;3.17;;;18.20;99.90;;;;;;5053391;28;20323;-83
2023/07/24 03:01:33;;;;;;;3.80;3.45;;;18.10;99.90;;;;;;5052794;28;20189;-83
2023/07/24 03:03:59;;;;;;;3.75;3.45;;;18.00;99.90;;;;;;5053128;28;20732;-83
2023/07/24 03:06:25;;;;;;;3.25;2.95;;;18.10;99.90;;;;;;5056680;28;20169;-81
2023/07/24 03:08:51;;;;;;;3.30;3.10;;;18.00;99.90;;;;;;5056311;28;20165;-82
2023/07/24 03:11:16;;;;;;;3.63;2.80;;;18.00;99.90;;;;;;5056479;28;20184;-83
2023/07/24 03:13:43;;;;;;;3.70;3.40;;;17.90;99.90;;;;;;5056508;28;20847;-82
2023/07/24 03:16:08;;;;;;;3.40;3.10;;;17.90;99.90;;;;;;5055735;28;20240;-82
2023/07/24 03:18:34;;;;;;;2.50;2.40;;;17.80;99.90;;;;;;5055976;28;20185;-82
2023/07/24 03:20:59;;;;;;;2.47;2.37;;;17.70;99.90;;;;;;5056273;28;20639;-82
2023/07/24 03:23:25;;;;;;;2.73;2.53;;;17.60;99.90;;;;;;5056374;28;20176;-82
2023/07/24 03:25:51;;;;;;;2.47;2.38;;;17.50;99.90;;;;;;5056234;28;20253;-83
2023/07/24 03:28:16;;;;;;;2.30;2.20;;;17.50;99.90;;;;;;5056095;28;20223;-82
2023/07/24 03:30:42;;;;;;;2.42;2.22;;;17.50;99.90;;;;;;5056078;28;20528;-83
2023/07/24 03:33:08;;;;;;;2.20;2.00;;;17.50;99.90;;;;;;5055850;28;20174;-83
2023/07/24 03:35:33;;;;;;;2.03;1.93;;;17.40;99.90;;;;;;5056073;28;20591;-82
2023/07/24 03:37:59;;;;;;;2.43;2.23;;;17.40;99.90;;;;;;5055963;28;20174;-83
2023/07/24 03:40:25;;;;;;;2.10;2.00;;;17.40;99.90;;;;;;5055931;28;20529;-83
2023/07/24 03:42:51;;;;;;;2.27;2.00;;;17.30;99.90;;;;;;5056354;28;20177;-81
2023/07/24 03:45:16;;;;;;;1.92;1.83;;;17.30;99.90;;;;;;5055845;28;20173;-82
2023/07/24 03:47:42;;;;;;;2.43;2.10;;;17.30;99.90;;;;;;5056718;28;20227;-84
2023/07/24 03:50:08;;;;;;;1.93;1.83;;;17.20;99.90;;;;;;5056183;28;20188;-83
2023/07/24 03:52:33;;;;;;;2.20;2.10;;;17.20;99.90;;;;;;5056616;28;20613;-83
2023/07/24 03:54:59;;;;;;;1.80;1.70;;;17.10;99.90;;;;;;5057445;28;20231;-83
2023/07/24 03:57:25;;;;;;;2.13;2.03;;;17.00;99.90;;;;;;5057605;28;20208;-83
2023/07/24 03:59:50;;;;;;;1.97;1.87;;;17.10;99.90;;;;;;5058381;28;20648;-83
2023/07/24 04:02:16;;;;;;;2.73;2.00;;;17.10;99.90;;;;;;5057459;28;20169;-83
2023/07/24 04:04:41;;;;;;;2.08;1.98;;;17.10;99.90;;;;;;5059436;28;20675;-82
2023/07/24 04:07:07;;;;;;;2.23;2.13;;;17.20;99.90;;;;;;5060011;28;20177;-83
2023/07/24 04:09:32;;;;;;;2.23;2.03;;;17.20;99.90;;;;;;5058418;28;20589;-82
2023/07/24 04:11:58;;;;;;;2.90;2.27;;;17.20;99.90;;;;;;5057961;28;20200;-82
2023/07/24 04:14:24;;;;;;;2.40;2.20;;;17.20;99.90;;;;;;5057267;28;20169;-82
2023/07/24 04:16:49;;;;;;;2.10;2.00;;;17.20;99.90;;;;;;5056999;28;20228;-83
2023/07/24 04:19:15;;;;;;;2.23;2.13;;;17.20;99.90;;;;;;5057533;28;20252;-81
2023/07/24 04:21:41;;;;;;;2.37;2.17;;;17.30;99.90;;;;;;5055567;28;20211;-82
2023/07/24 04:24:06;;;;;;;1.92;1.83;;;17.30;99.90;;;;;;5057278;28;20209;-82
2023/07/24 04:26:32;;;;;;;2.58;2.38;;;17.30;99.90;;;;;;5057684;28;20227;-83
2023/07/24 04:28:57;;;;;;;2.00;1.90;;;17.30;99.90;;;;;;5056938;28;20177;-83
2023/07/24 04:31:23;;;;;;;2.20;2.10;;;17.40;99.90;;;;;;5055086;28;20169;-82
2023/07/24 04:33:49;;;;;;;1.90;1.80;;;17.40;99.90;;;;;;5056696;28;20169;-83
2023/07/24 04:36:14;;;;;;;2.90;2.13;;;17.40;99.90;;;;;;5056866;28;20551;-83
2023/07/24 04:38:40;;;;;;;2.17;2.08;;;17.40;99.90;;;;;;5056978;28;20231;-82
2023/07/24 04:41:05;;;;;;;2.80;2.10;;;17.40;99.90;;;;;;5055427;28;20228;-84
2023/07/24 04:43:31;;;;;;;2.33;2.23;;;17.40;99.90;;;;;;5056725;28;20246;-83
2023/07/24 04:45:57;;;;;;;2.20;2.10;;;17.40;99.90;;;;;;5055660;28;20169;-83
2023/07/24 04:48:22;;;;;;;2.80;2.60;;;17.40;99.90;;;;;;5055751;28;20165;-83
2023/07/24 04:50:54;;;;;;;2.90;2.70;;;17.50;99.90;;;;;;5055433;28;20184;-83
2023/07/24 04:53:20;;;;;;;2.55;2.35;;;17.50;99.90;;;;;;5054862;28;20165;-82
2023/07/24 04:55:46;;;;;;;2.67;2.55;;;17.60;99.90;;;;;;5053570;28;20205;-82
2023/07/24 04:58:11;;;;;;;2.22;2.13;;;17.60;99.90;;;;;;5055340;28;20235;-82
2023/07/24 05:00:37;;;;;;;2.60;2.40;;;17.70;99.90;;;;;;5055451;28;20628;-82
2023/07/24 05:03:03;;;;;;;2.35;2.13;;;17.70;99.90;;;;;;5054344;28;20189;-83
2023/07/24 05:05:28;;;;;;;2.50;2.30;;;17.60;99.90;;;;;;5055253;28;20170;-83
2023/07/24 05:07:54;;;;;;;2.28;2.17;;;17.50;99.90;;;;;;5054574;28;20528;-83
2023/07/24 05:10:19;;;;;;;3.42;2.30;;;17.50;99.90;;;;;;5054389;28;20170;-82
2023/07/24 05:12:46;;;;;;;2.40;2.20;;;17.50;99.90;;;;;;5054295;28;20182;-83
2023/07/24 05:15:11;;;;;;;2.33;2.22;;;17.50;99.90;;;;;;5053851;28;20260;-83
2023/07/24 05:17:37;;;;;;;2.45;2.25;;;17.50;99.90;;;;;;5055171;28;20615;-83
2023/07/24 05:20:03;;;;;;;2.70;2.50;;;17.50;99.90;;;;;;5054739;28;20640;-83
2023/07/24 05:22:28;;;;;;;2.25;2.05;;;17.50;99.90;;;;;;5055155;28;20223;-83
2023/07/24 05:24:54;;;;;;;2.30;2.20;;;17.50;99.90;;;;;;5054655;28;20288;-82
2023/07/24 05:27:20;;;;;;;3.00;2.70;;;17.60;99.90;;;;;;5054317;28;20177;-83
2023/07/24 05:29:45;;;;;;;2.67;2.30;;;17.70;99.90;;;;;;5054020;28;20185;-83
2023/07/24 05:32:11;;;;;;;2.28;2.08;;;17.80;99.90;;;;;;5054821;28;20260;-84
2023/07/24 05:34:36;;;;;;;3.08;2.88;;;17.90;99.90;;;;;;5055514;28;20541;-85
2023/07/24 05:37:02;;;;;;;2.83;2.63;;;18.10;99.90;;;;;;5057708;28;20660;-85
2023/07/24 05:39:29;;;;;;;2.95;2.33;;;18.40;99.90;;;;;;5056924;28;20181;-83
2023/07/24 05:41:55;;;;;;;2.67;2.20;;;18.70;99.90;;;;;;5055009;28;20307;-83
2023/07/24 05:44:21;;;;;;;2.47;2.22;;;19.10;99.90;;;;;;5054850;28;20280;-84
2023/07/24 05:46:46;;;;;;;2.55;2.35;;;19.20;99.90;;;;;;5053962;28;20660;-82
2023/07/24 05:49:12;;;;;;;4.25;2.53;;;19.20;99.90;;;;;;5055029;28;20177;-83
2023/07/24 05:51:37;;;;;;;3.28;2.58;;;19.00;99.90;;;;;;5055723;28;20181;-83
2023/07/24 05:54:03;;;;;;;2.92;2.58;;;18.80;99.90;;;;;;5054267;28;20168;-84
2023/07/24 05:56:28;;;;;;;4.10;2.58;;;18.70;99.90;;;;;;5054169;28;20574;-83
2023/07/24 05:58:54;;;;;;;2.50;2.30;;;18.70;99.90;;;;;;5053445;28;20173;-83
2023/07/24 06:01:20;;;;;;;3.42;2.70;;;18.90;99.90;;;;;;5053659;28;20741;-85
2023/07/24 06:03:45;;;;;;;2.40;2.30;;;18.90;99.90;;;;;;5052925;28;20200;-84
2023/07/24 06:06:11;;;;;;;3.60;2.40;;;18.80;99.90;;;;;;5053375;28;20529;-82
2023/07/24 06:08:36;;;;;;;2.78;2.60;;;18.90;99.90;;;;;;5052662;28;20288;-82
2023/07/24 06:11:02;;;;;;;2.90;2.67;;;19.10;99.90;;;;;;5053268;28;20641;-82
2023/07/24 06:13:27;;;;;;;2.55;2.42;;;19.20;99.90;;;;;;5052864;28;20165;-83
2023/07/24 06:15:53;;;;;;;2.97;2.78;;;19.30;99.90;;;;;;5053643;28;20278;-83
2023/07/24 06:18:19;;;;;;;2.90;2.70;;;19.20;99.90;;;;;;5052989;28;20165;-83
2023/07/24 06:20:44;;;;;;;3.15;2.95;;;19.10;99.90;;;;;;5053131;28;20223;-83
2023/07/24 06:23:10;;;;;;;2.90;2.70;;;19.10;99.90;;;;;;5053017;28;20256;-83
2023/07/24 06:25:35;;;;;;;2.63;2.50;;;19.10;99.90;;;;;;5051559;28;20616;-82
2023/07/24 06:28:01;;;;;;;3.22;3.03;;;19.40;99.90;;;;;;5052858;28;20169;-81
2023/07/24 06:30:27;;;;;;;3.33;3.03;;;20.10;99.90;;;;;;5052735;28;20590;-80
2023/07/24 06:32:52;;;;;;;3.20;2.90;;;20.50;99.90;;;;;;5051524;28;20173;-82
2023/07/24 06:35:18;;;;;;;3.35;3.10;;;20.80;99.90;;;;;;5052328;28;20166;-82
2023/07/24 06:37:44;;;;;;;3.65;2.58;;;20.20;99.90;;;;;;5052436;28;20311;-80
2023/07/24 06:40:10;;;;;;;2.92;2.67;;;20.10;99.90;;;;;;5054797;28;20162;-81
2023/07/24 06:42:36;;;;;;;3.80;2.70;;;20.20;99.90;;;;;;5056223;28;20563;-81
2023/07/24 06:45:02;;;;;;;2.65;2.45;;;20.30;99.90;;;;;;5056956;28;20548;-82
2023/07/24 06:47:28;;;;;;;3.92;2.67;;;20.40;99.90;;;;;;5056521;28;20269;-80
2023/07/24 06:49:53;;;;;;;4.80;2.50;;;20.70;99.90;;;;;;5055946;28;20272;-82
2023/07/24 06:52:19;;;;;;;2.58;2.13;;;21.50;81.00;;;;;;5056249;28;20168;-83
2023/07/24 06:54:44;;;;;;;3.97;2.20;;;23.30;25.70;;;;;;5056370;28;20200;-82
2023/07/24 06:57:10;;;;;;;2.55;2.28;;;23.40;10.50;;;;;;5056106;28;20656;-84
2023/07/24 06:59:36;;;;;;;2.88;2.60;;;23.80;1.00;;;;;;5056367;28;20669;-82
2023/07/24 07:02:01;;;;;;;3.45;2.90;;;23.50;2.90;;;;;;5056512;28;20223;-85
2023/07/24 07:04:27;;;;;;;3.35;2.70;;;23.10;10.80;;;;;;5056649;28;20335;-85
2023/07/24 07:06:52;;;;;;;2.53;2.33;;;23.20;10.90;;;;;;5056236;28;20177;-85
2023/07/24 07:09:18;;;;;;;3.40;2.80;;;23.00;20.30;;;;;;5056664;28;20617;-85
2023/07/24 07:11:44;;;;;;;2.95;2.60;;;22.70;27.70;;;;;;5056437;28;20570;-83
2023/07/24 07:14:10;;;;;;;3.97;2.70;;;22.20;37.60;;;;;;5055041;28;20181;-85
2023/07/24 07:16:36;;;;;;;3.20;2.35;;;21.90;44.60;;;;;;5056127;28;20205;-84
2023/07/24 07:19:01;;;;;;;2.90;2.60;;;21.60;53.90;;;;;;5056747;28;20173;-85
2023/07/24 07:21:27;;;;;;;2.88;2.67;;;21.70;59.00;;;;;;5056007;28;20181;-85
2023/07/24 07:23:52;;;;;;;3.25;2.47;;;21.60;55.70;;;;;;5055165;28;20201;-86
2023/07/24 07:26:18;;;;;;;3.83;2.67;;;21.50;51.10;;;;;;5056590;28;20170;-86
2023/07/24 07:28:47;;;;;;;3.00;2.78;;;21.20;62.10;;;;;;5056713;28;20170;-85
2023/07/24 07:31:12;;;;;;;2.90;2.70;;;21.00;68.70;;;;;;5056572;28;20196;-85
2023/07/24 07:33:38;;;;;;;2.92;2.70;;;20.80;83.50;;;;;;5056234;28;20560;-85
2023/07/24 07:36:05;;;;;;;3.85;3.00;;;20.80;90.90;;;;;;5055770;28;20205;-85
2023/07/24 07:38:31;;;;;;;3.10;2.80;;;21.00;83.10;;;;;;5055853;28;20169;-85
2023/07/24 07:40:57;;;;;;;2.60;2.40;;;21.00;84.30;;;;;;5055243;28;20255;-85
2023/07/24 07:43:22;;;;;;;2.60;2.40;;;21.40;72.40;;;;;;5056106;28;20177;-85
2023/07/24 07:45:48;;;;;;;2.58;2.47;;;21.60;58.50;;;;;;5056109;28;20683;-86
2023/07/24 07:48:13;;;;;;;2.20;2.10;;;21.90;38.90;;;;;;5055588;28;20177;-87
2023/07/24 07:50:39;;;;;;;3.00;2.80;;;21.90;39.90;;;;;;5054422;28;20211;-86
2023/07/24 07:53:05;;;;;;;3.63;3.25;;;21.40;43.80;;;;;;5055509;28;20511;-85
2023/07/24 07:55:30;;;;;;;3.17;2.50;;;21.50;48.70;;;;;;5055721;28;20173;-85
2023/07/24 07:57:56;;;;;;;3.13;2.80;;;21.40;56.00;;;;;;5056021;28;20177;-85
2023/07/24 08:00:22;;;;;;;5.38;3.25;;;21.60;50.40;;;;;;5055182;28;20257;-84
2023/07/24 08:02:48;;;;;;;2.58;2.42;;;22.00;43.70;;;;;;5055260;28;20235;-85
2023/07/24 08:05:13;;;;;;;2.88;2.67;;;22.50;30.10;;;;;;5055043;28;20632;-86
2023/07/24 08:07:39;;;;;;;2.88;2.67;;;22.70;12.70;;;;;;5054844;28;20534;-84
2023/07/24 08:10:06;;;;;;;3.15;2.92;;;22.70;9.20;;;;;;5056670;28;20173;-84
2023/07/24 08:12:32;;;;;;;3.00;2.70;;;22.30;8.70;;;;;;5055468;28;20197;-77
2023/07/24 08:14:57;;;;;;;3.05;2.72;;;21.90;25.90;;;;;;5060268;28;20200;-74
2023/07/24 08:17:23;;;;;;;3.00;2.72;;;21.70;29.10;;;;;;5059307;28;20224;-75
2023/07/24 08:19:49;;;;;;;3.15;2.90;;;21.40;37.70;;;;;;5059448;28;20185;-76
2023/07/24 08:22:14;;;;;;;3.58;3.03;;;21.40;46.00;;;;;;5053978;28;20570;-77
2023/07/24 08:24:40;;;;;;;3.22;2.92;;;21.00;51.10;;;;;;5054281;28;20165;-77
2023/07/24 08:27:06;;;;;;;2.83;2.63;;;20.80;57.60;;;;;;5054032;28;20174;-74
2023/07/24 08:29:31;;;;;;;3.90;3.03;;;20.60;57.40;;;;;;5054558;28;20508;-75
2023/07/24 08:31:57;;;;;;;3.00;2.78;;;20.60;66.30;;;;;;5069852;28;20235;-75
2023/07/24 08:34:22;;;;;;;3.60;3.30;;;20.40;67.20;;;;;;5065800;28;20521;-74
2023/07/24 08:36:48;;;;;;;3.40;3.05;;;20.40;81.20;;;;;;5054040;28;20205;-74
2023/07/24 08:39:14;;;;;;;3.65;3.35;;;20.30;84.60;;;;;;5054190;28;20231;-75
2023/07/24 08:41:39;;;;;;;5.65;3.25;;;20.50;91.90;;;;;;5053642;28;20263;-78
2023/07/24 08:44:07;;;;;;;3.47;2.75;;;20.50;90.40;;;;;;5053676;28;20169;-75
2023/07/24 08:46:41;;;;;;;3.60;3.30;;;20.80;86.00;;;;;;5054460;28;20253;-78
2023/07/24 08:49:11;;;;;;;3.35;3.15;;;20.90;73.70;;;;;;5052965;28;20188;-76
2023/07/24 08:51:37;;;;;;;3.42;3.00;;;20.50;59.10;;;;;;5053936;28;20252;-76
2023/07/24 08:54:04;;;;;;;3.63;3.33;;;20.20;78.40;;;;;;5052861;28;20173;-78
2023/07/24 08:56:31;;;;;;;2.72;2.53;;;20.00;90.80;;;;;;5053914;28;20220;-75
2023/07/24 08:58:56;;;;;;;2.90;2.70;;;19.70;97.00;;;;;;5054004;28;20219;-75
2023/07/24 09:01:22;;;;;;;4.35;3.03;;;19.70;99.90;;;;;;5052964;28;20173;-75
2023/07/24 09:03:48;;;;;;;3.22;2.58;;;19.40;97.80;;;;;;5051210;28;20545;-77
2023/07/24 09:06:13;;;;;;;3.20;2.95;;;19.40;99.90;;;;;;5052771;28;20264;-78
2023/07/24 09:08:43;;;;;;;3.45;3.05;;;19.20;99.90;;;;;;5052545;28;20177;-76
2023/07/24 09:11:13;;;;;;;3.17;2.70;;;19.20;99.90;;;;;;5053506;28;20181;-77
2023/07/24 09:13:42;;;;;;;2.90;2.70;;;19.30;99.90;;;;;;5053623;28;20201;-77
2023/07/24 09:16:08;;;;;;;3.15;2.95;;;19.20;98.50;;;;;;5053845;28;20220;-78
2023/07/24 09:18:43;;;;;;;4.00;2.70;;;19.10;99.90;;;;;;5053120;28;20268;-75
2023/07/24 09:21:12;;;;;;;3.35;3.05;;;19.10;99.90;;;;;;5051568;28;20658;-77
2023/07/24 09:23:40;;;;;;;3.50;3.20;;;19.00;99.90;;;;;;5053179;28;20227;-76
2023/07/24 09:26:07;;;;;;;5.68;3.60;;;19.00;99.90;;;;;;5053461;28;20169;-77
2023/07/24 09:28:34;;;;;;;3.38;2.90;;;19.00;99.90;;;;;;5053493;28;20249;-78
2023/07/24 09:31:03;;;;;;;3.83;2.97;;;19.30;99.90;;;;;;5053118;28;20235;-79
2023/07/24 09:33:41;;;;;;;3.40;3.20;;;19.50;99.90;;;;;;5056867;28;20181;-78
2023/07/24 09:36:08;;;;;;;3.72;3.35;;;19.70;99.90;;;;;;5069567;28;20287;-78
2023/07/24 09:38:35;;;;;;;7.10;3.97;;;19.70;99.90;;;;;;5052416;28;20180;-75
2023/07/24 09:41:05;;;;;;;4.25;3.25;;;19.70;99.90;;;;;;5050886;28;20217;-75
2023/07/24 09:43:31;;;;;;;3.60;2.80;;;19.70;97.90;;;;;;5053093;28;20168;-75
2023/07/24 09:45:58;;;;;;;5.40;3.42;;;19.60;90.80;;;;;;5052268;28;20192;-75
2023/07/24 09:48:25;;;;;;;4.35;3.60;;;19.70;99.90;;;;;;5052557;28;20206;-75
2023/07/24 09:50:56;;;;;;;4.00;3.63;;;19.80;99.90;;;;;;5052787;28;20170;-75
2023/07/24 09:53:46;;;;;;;3.30;3.08;;;19.60;99.90;;;;;;5051976;28;20169;-77
2023/07/24 09:56:14;;;;;;;3.42;3.20;;;19.40;99.90;;;;;;5051472;28;20204;-74
2023/07/24 09:58:43;;;;;;;3.97;3.55;;;18.80;99.90;;;;;;5052287;28;20234;-75
2023/07/24 10:01:09;;;;;;;3.75;3.45;;;18.70;99.90;;;;;;5051913;28;20538;-75
2023/07/24 10:03:40;;;;;;;3.85;3.55;;;18.70;99.90;;;;;;5052532;28;20664;-75
2023/07/24 10:06:10;;;;;;;4.47;3.88;;;18.80;99.90;;;;;;5052544;28;20189;-73
2023/07/24 10:08:36;;;;;;;3.92;3.63;;;18.90;99.90;;;;;;5052466;28;20162;-76
2023/07/24 10:11:02;;;;;;;3.88;3.50;;;18.80;99.90;;;;;;5051015;28;20177;-78
2023/07/24 10:13:29;;;;;;;3.80;3.50;;;19.00;99.90;;;;;;5050847;28;20223;-74
2023/07/24 10:15:55;;;;;;;3.55;3.25;;;19.10;99.90;;;;;;5052214;28;20205;-75
2023/07/24 10:18:27;;;;;;;3.75;3.10;;;19.40;99.90;;;;;;5052164;28;20181;-73
2023/07/24 10:21:07;;;;;;;3.88;3.55;;;19.70;99.90;;;;;;5052265;28;20231;-75
2023/07/24 10:23:44;;;;;;;3.67;3.47;;;20.30;99.90;;;;;;5055676;28;20323;-75
2023/07/24 10:26:10;;;;;;;3.22;3.03;;;20.80;99.90;;;;;;5054274;28;20169;-73
2023/07/24 10:28:40;;;;;;;3.10;2.80;;;21.00;87.20;;;;;;5072452;28;20247;-73
2023/07/24 10:31:23;;;;;;;3.47;3.17;;;21.50;63.30;;;;;;5071951;28;20263;-76
2023/07/24 10:33:49;;;;;;;4.13;3.70;;;22.10;52.80;;;;;;5064750;28;20271;-78
2023/07/24 10:36:20;;;;;;;3.65;3.35;;;22.30;36.00;;;;;;5051304;28;20560;-75
2023/07/24 10:38:51;;;;;;;2.80;2.55;;;22.60;36.00;;;;;;5052000;28;20185;-76
2023/07/24 10:41:17;;;;;;;3.10;2.90;;;23.60;14.60;;;;;;5050618;28;20317;-79
2023/07/24 10:43:50;;;;;;;3.53;3.20;;;24.70;1.00;;;;;;5049785;28;20173;-76
2023/07/24 10:46:18;;;;;;;3.55;3.35;;;25.10;1.00;;;;;;5052248;28;20174;-74
2023/07/24 10:48:49;;;;;;;4.97;4.00;;;25.30;1.00;;;;;;5051995;28;20170;-75
2023/07/24 10:51:15;;;;;;;3.78;3.00;;;25.70;1.00;;;;;;5052275;28;20177;-76
2023/07/24 10:53:46;;;;;;;3.35;3.10;;;25.80;1.00;;;;;;5061683;28;20189;-75
2023/07/24 10:56:12;;;;;;;3.20;3.00;;;25.90;1.00;;;;;;5051402;28;20205;-76
2023/07/24 10:58:38;;;;;;;3.80;3.50;;;26.20;1.00;;;;;;5051905;28;20509;-78
2023/07/24 11:01:04;;;;;;;4.03;3.80;;;25.60;1.00;;;;;;5051730;28;20579;-77
2023/07/24 11:03:31;;;;;;;3.25;3.00;;;24.80;1.00;;;;;;5051948;28;20208;-76
2023/07/24 11:05:58;;;;;;;3.40;3.20;;;24.10;1.00;;;;;;5052010;28;20193;-76
2023/07/24 11:08:24;;;;;;;5.30;3.50;;;23.70;9.50;;;;;;5052207;28;20181;-73
2023/07/24 11:10:51;;;;;;;3.97;3.58;;;23.70;1.00;;;;;;5051201;28;20267;-73
2023/07/24 11:13:19;;;;;;;3.28;3.08;;;23.80;17.40;;;;;;5034137;28;20180;-75
2023/07/24 11:15:44;;;;;;;3.50;3.20;;;23.70;1.00;;;;;;5050804;28;20239;-76
2023/07/24 11:18:11;;;;;;;3.80;3.47;;;23.20;7.60;;;;;;5052133;28;20178;-75
2023/07/24 11:20:46;;;;;;;4.30;4.00;;;23.20;9.10;;;;;;5051562;28;20170;-77
2023/07/24 11:23:12;;;;;;;3.53;3.33;;;23.60;9.70;;;;;;5052130;28;20177;-76
2023/07/24 11:25:38;;;;;;;4.70;3.65;;;23.70;1.00;;;;;;5052673;28;20212;-76
2023/07/24 11:28:08;;;;;;;4.20;3.78;;;23.10;1.80;;;;;;5055685;28;20196;-74
2023/07/24 11:30:34;;;;;;;3.75;3.45;;;23.20;12.40;;;;;;5055026;28;20161;-76
2023/07/24 11:33:08;;;;;;;4.10;3.80;;;23.20;10.60;;;;;;5055553;28;20705;-77
2023/07/24 11:35:35;;;;;;;3.85;3.53;;;23.90;11.50;;;;;;5055127;28;20173;-77
2023/07/24 11:38:01;;;;;;;3.95;3.45;;;24.40;1.00;;;;;;5055054;28;20173;-74
2023/07/24 11:40:35;;;;;;;3.80;3.50;;;25.00;1.00;;;;;;5053613;28;20684;-77
2023/07/24 11:43:00;;;;;;;4.28;3.88;;;25.50;1.00;;;;;;5055033;28;20181;-77
2023/07/24 11:45:26;;;;;;;3.90;3.60;;;25.20;1.00;;;;;;5055512;28;20177;-78
2023/07/24 11:47:56;;;;;;;4.00;3.65;;;25.60;1.00;;;;;;5053885;28;20254;-74
2023/07/24 11:50:22;;;;;;;3.97;3.60;;;25.70;1.00;;;;;;5055322;28;20170;-76
2023/07/24 11:52:50;;;;;;;4.25;3.85;;;25.70;1.00;;;;;;5054849;28;20624;-77
2023/07/24 11:55:30;;;;;;;3.72;3.45;;;25.90;1.00;;;;;;5053647;28;20197;-77
2023/07/24 11:58:00;;;;;;;3.72;3.42;;;26.40;1.00;;;;;;5054640;28;20184;-78
2023/07/24 12:00:27;;;;;;;3.80;3.50;;;26.20;1.00;;;;;;5054829;28;20541;-75
2023/07/24 12:02:53;;;;;;;3.97;3.67;;;26.20;1.00;;;;;;5053076;28;20193;-75
2023/07/24 12:05:19;;;;;;;3.90;3.60;;;25.80;1.00;;;;;;5053633;28;20180;-77
2023/07/24 12:07:46;;;;;;;3.55;3.35;;;25.90;1.00;;;;;;5037143;28;20218;-76
2023/07/24 12:10:12;;;;;;;4.10;3.67;;;25.80;1.00;;;;;;5053240;28;20189;-75
2023/07/24 12:12:45;;;;;;;4.70;3.58;;;25.80;1.00;;;;;;5054276;28;20165;-75
2023/07/24 12:15:12;;;;;;;3.50;3.30;;;25.70;1.00;;;;;;5054607;28;20179;-76
2023/07/24 12:17:38;;;;;;;3.67;3.40;;;25.70;1.00;;;;;;5052922;28;20215;-75
2023/07/24 12:20:05;;;;;;;3.00;2.80;;;25.40;1.00;;;;;;5053505;28;20187;-76
2023/07/24 12:22:32;;;;;;;3.58;3.28;;;25.00;1.00;;;;;;5053867;28;20306;-77
2023/07/24 12:24:58;;;;;;;3.88;3.30;;;24.60;1.00;;;;;;5053104;28;20174;-74
2023/07/24 12:27:24;;;;;;;3.80;3.50;;;24.80;1.00;;;;;;5054354;28;20180;-77
2023/07/24 12:29:51;;;;;;;3.17;2.97;;;24.50;1.00;;;;;;5054594;28;20200;-78
2023/07/24 12:32:16;;;;;;;3.83;3.53;;;24.20;1.00;;;;;;5053919;28;20203;-75
2023/07/24 12:34:42;;;;;;;4.00;3.60;;;23.70;1.00;;;;;;5052586;28;20169;-76
2023/07/24 12:37:07;;;;;;;3.88;3.60;;;23.70;1.00;;;;;;5053706;28;20216;-76
2023/07/24 12:39:33;;;;;;;5.15;3.47;;;23.60;1.00;;;;;;5054199;28;20170;-75
2023/07/24 12:41:59;;;;;;;6.53;3.70;;;23.30;1.00;;;;;;5053306;28;20236;-74
2023/07/24 12:44:26;;;;;;;3.25;3.05;;;22.90;1.00;;;;;;5054576;28;20173;-74